Elvis — WDF2023 — position and weather

sailwx.info

Track history (hours):
 
Tides and Currents Weather Stations Pressure Air Temp Water Temp Dewpoint Dewpoint Depression Visibility Wind Speed Wind Dir Waves Ship Positions

Elvis

Owner: HAYDEL MARINE TOWING LLC, FRANKLIN, LA. More information available from US FCC via Universal Licensing System.

Last reported at 2018-Jan-11 20:13 UTC. Time now 2018-Jan-19 01:32 UTC.
Position N 29°33' W 090°28'.

Length 37 m.

Type: Other ship. MMSI: 300300200.

Date/timePositionNaut miles runAvg speedWind from/ knotsBaromVisibWave heightAir tempDewpointWater temp
2018-Jan-11 20:13N 29°33' W 090°28'1 6.7
2018-Jan-11 20:00N 29°34' W 090°30'3 6.6
2018-Jan-11 19:30N 29°34' W 090°33'3 6.0
2018-Jan-11 19:01N 29°35' W 090°37'3 6.2
2018-Jan-11 18:30N 29°36' W 090°40'2 4.6
2018-Jan-11 18:00N 29°36' W 090°43'2 4.2
2018-Jan-11 17:30N 29°34' W 090°43'0 0.8
2018-Jan-11 17:00N 29°34' W 090°44'1 3.0
2018-Jan-11 16:31N 29°35' W 090°43'2 3.9
2018-Jan-11 16:00N 29°37' W 090°42'2 4.3
2018-Jan-11 15:30N 29°36' W 090°40'2 4.3
2018-Jan-11 15:00N 29°35' W 090°37'2 4.2
2018-Jan-11 14:30N 29°35' W 090°35'2 3.9
2018-Jan-11 13:58N 29°34' W 090°33'2 4.1
2018-Jan-11 13:29N 29°34' W 090°31'  
Track history (hours):
 
Tides and Currents Weather Stations Pressure Air Temp Water Temp Dewpoint Dewpoint Depression Visibility Wind Speed Wind Dir Waves Ship Positions

Elvis

Owner: HAYDEL MARINE TOWING LLC, FRANKLIN, LA. More information available from US FCC via Universal Licensing System.

Last reported at 2018-Jan-11 20:13 UTC. Time now 2018-Jan-19 01:32 UTC.
Position N 29°33' W 090°28'.

Length 37 m.

Type: Other ship. MMSI: 300300200.

Date/timePositionNaut miles runAvg speedWind from/ knotsBaromVisibWave heightAir tempDewpointWater temp
2018-Jan-11 20:13N 29°33' W 090°28'1 6.7
2018-Jan-11 20:00N 29°34' W 090°30'3 6.6
2018-Jan-11 19:30N 29°34' W 090°33'3 6.0
2018-Jan-11 19:01N 29°35' W 090°37'3 6.2
2018-Jan-11 18:30N 29°36' W 090°40'2 4.6
2018-Jan-11 18:00N 29°36' W 090°43'2 4.2
2018-Jan-11 17:30N 29°34' W 090°43'0 0.8
2018-Jan-11 17:00N 29°34' W 090°44'1 3.0
2018-Jan-11 16:31N 29°35' W 090°43'2 3.9
2018-Jan-11 16:00N 29°37' W 090°42'2 4.3
2018-Jan-11 15:30N 29°36' W 090°40'2 4.3
2018-Jan-11 15:00N 29°35' W 090°37'2 4.2
2018-Jan-11 14:30N 29°35' W 090°35'2 3.9
2018-Jan-11 13:58N 29°34' W 090°33'2 4.1
2018-Jan-11 13:29N 29°34' W 090°31'  

Dump ship's entire track history